sensor_id;sensor_type;location;lat;lon;timestamp;temperature;humidity
19732;DHT22;10017;54.350;18.532;2022-11-15T00:02:23;6.70;99.90
19732;DHT22;10017;54.350;18.532;2022-11-15T00:04:55;6.70;99.90
19732;DHT22;10017;54.350;18.532;2022-11-15T00:07:29;6.70;99.90
19732;DHT22;10017;54.350;18.532;2022-11-15T00:10:23;6.70;99.90
19732;DHT22;10017;54.350;18.532;2022-11-15T00:12:57;6.60;99.90
19732;DHT22;10017;54.350;18.532;2022-11-15T00:15:29;6.60;99.90
19732;DHT22;10017;54.350;18.532;2022-11-15T00:18:00;6.60;99.90
19732;DHT22;10017;54.350;18.532;2022-11-15T00:20:35;6.70;99.90
19732;DHT22;10017;54.350;18.532;2022-11-15T00:23:11;6.70;99.90
19732;DHT22;10017;54.350;18.532;2022-11-15T00:25:43;6.60;99.90
19732;DHT22;10017;54.350;18.532;2022-11-15T00:28:17;6.60;99.90
19732;DHT22;10017;54.350;18.532;2022-11-15T00:30:49;6.70;99.90
19732;DHT22;10017;54.350;18.532;2022-11-15T00:33:21;6.70;99.90
19732;DHT22;10017;54.350;18.532;2022-11-15T00:35:53;6.70;99.90
19732;DHT22;10017;54.350;18.532;2022-11-15T00:38:24;6.60;99.90
19732;DHT22;10017;54.350;18.532;2022-11-15T00:40:59;6.60;99.90
19732;DHT22;10017;54.350;18.532;2022-11-15T00:43:38;6.60;99.90
19732;DHT22;10017;54.350;18.532;2022-11-15T00:46:11;6.60;99.90
19732;DHT22;10017;54.350;18.532;2022-11-15T00:48:43;6.60;99.90
19732;DHT22;10017;54.350;18.532;2022-11-15T00:51:15;6.60;99.90
19732;DHT22;10017;54.350;18.532;2022-11-15T00:53:46;6.60;99.90
19732;DHT22;10017;54.350;18.532;2022-11-15T00:56:18;6.60;99.90
19732;DHT22;10017;54.350;18.532;2022-11-15T00:58:52;6.60;99.90
19732;DHT22;10017;54.350;18.532;2022-11-15T01:01:24;6.60;99.90
19732;DHT22;10017;54.350;18.532;2022-11-15T01:03:56;6.60;99.90
19732;DHT22;10017;54.350;18.532;2022-11-15T01:06:32;6.60;99.90
19732;DHT22;10017;54.350;18.532;2022-11-15T01:09:03;6.50;99.90
19732;DHT22;10017;54.350;18.532;2022-11-15T01:11:35;6.60;99.90
19732;DHT22;10017;54.350;18.532;2022-11-15T01:14:07;6.50;99.90
19732;DHT22;10017;54.350;18.532;2022-11-15T01:16:39;6.50;99.90
19732;DHT22;10017;54.350;18.532;2022-11-15T01:19:13;6.50;99.90
19732;DHT22;10017;54.350;18.532;2022-11-15T01:21:45;6.50;99.90
19732;DHT22;10017;54.350;18.532;2022-11-15T01:24:16;6.50;99.90
19732;DHT22;10017;54.350;18.532;2022-11-15T01:26:48;6.50;99.90
19732;DHT22;10017;54.350;18.532;2022-11-15T01:29:20;6.50;99.90
19732;DHT22;10017;54.350;18.532;2022-11-15T01:31:52;6.40;99.90
19732;DHT22;10017;54.350;18.532;2022-11-15T01:34:27;6.40;99.90
19732;DHT22;10017;54.350;18.532;2022-11-15T01:36:59;6.50;99.90
19732;DHT22;10017;54.350;18.532;2022-11-15T01:39:30;6.40;99.90
19732;DHT22;10017;54.350;18.532;2022-11-15T01:42:02;6.40;99.90
19732;DHT22;10017;54.350;18.532;2022-11-15T01:47:10;6.40;99.90
19732;DHT22;10017;54.350;18.532;2022-11-15T01:49:49;6.40;99.90
19732;DHT22;10017;54.350;18.532;2022-11-15T01:52:25;6.30;99.90
19732;DHT22;10017;54.350;18.532;2022-11-15T01:55:07;6.30;99.90
19732;DHT22;10017;54.350;18.532;2022-11-15T01:57:41;6.30;99.90
19732;DHT22;10017;54.350;18.532;2022-11-15T02:00:13;6.30;99.90
19732;DHT22;10017;54.350;18.532;2022-11-15T02:02:47;6.30;99.90
19732;DHT22;10017;54.350;18.532;2022-11-15T02:05:19;6.30;99.90
19732;DHT22;10017;54.350;18.532;2022-11-15T02:07:51;6.30;99.90
19732;DHT22;10017;54.350;18.532;2022-11-15T02:10:23;6.30;99.90
19732;DHT22;10017;54.350;18.532;2022-11-15T02:12:55;6.30;99.90
19732;DHT22;10017;54.350;18.532;2022-11-15T02:15:30;6.30;99.90
19732;DHT22;10017;54.350;18.532;2022-11-15T02:26:51;6.30;99.90
19732;DHT22;10017;54.350;18.532;2022-11-15T02:29:36;6.30;99.90
19732;DHT22;10017;54.350;18.532;2022-11-15T02:32:21;6.30;99.90
19732;DHT22;10017;54.350;18.532;2022-11-15T02:34:56;6.30;99.90
19732;DHT22;10017;54.350;18.532;2022-11-15T02:37:45;6.30;99.90
19732;DHT22;10017;54.350;18.532;2022-11-15T02:42:53;6.30;99.90
19732;DHT22;10017;54.350;18.532;2022-11-15T02:45:45;6.30;99.90
19732;DHT22;10017;54.350;18.532;2022-11-15T02:48:18;6.30;99.90
19732;DHT22;10017;54.350;18.532;2022-11-15T02:50:51;6.30;99.90
19732;DHT22;10017;54.350;18.532;2022-11-15T02:53:26;6.30;99.90
19732;DHT22;10017;54.350;18.532;2022-11-15T02:55:57;6.30;99.90
19732;DHT22;10017;54.350;18.532;2022-11-15T03:06:20;6.20;99.90
19732;DHT22;10017;54.350;18.532;2022-11-15T03:11:35;6.20;99.90
19732;DHT22;10017;54.350;18.532;2022-11-15T03:21:56;6.20;99.90
19732;DHT22;10017;54.350;18.532;2022-11-15T03:24:31;6.20;99.90
19732;DHT22;10017;54.350;18.532;2022-11-15T03:27:06;6.20;99.90
19732;DHT22;10017;54.350;18.532;2022-11-15T03:29:39;6.20;99.90
19732;DHT22;10017;54.350;18.532;2022-11-15T03:32:14;6.20;99.90
19732;DHT22;10017;54.350;18.532;2022-11-15T03:34:55;6.20;99.90
19732;DHT22;10017;54.350;18.532;2022-11-15T03:37:33;6.10;99.90
19732;DHT22;10017;54.350;18.532;2022-11-15T03:40:07;6.10;99.90
19732;DHT22;10017;54.350;18.532;2022-11-15T03:45:22;6.10;99.90
19732;DHT22;10017;54.350;18.532;2022-11-15T03:47:58;6.10;99.90
19732;DHT22;10017;54.350;18.532;2022-11-15T03:50:31;6.00;99.90
19732;DHT22;10017;54.350;18.532;2022-11-15T03:53:03;6.00;99.90
19732;DHT22;10017;54.350;18.532;2022-11-15T03:55:35;6.00;99.90
19732;DHT22;10017;54.350;18.532;2022-11-15T03:58:07;6.00;99.90
19732;DHT22;10017;54.350;18.532;2022-11-15T04:00:38;6.00;99.90
19732;DHT22;10017;54.350;18.532;2022-11-15T04:03:10;6.10;99.90
19732;DHT22;10017;54.350;18.532;2022-11-15T04:05:42;6.00;99.90
19732;DHT22;10017;54.350;18.532;2022-11-15T04:08:14;6.00;99.90
19732;DHT22;10017;54.350;18.532;2022-11-15T04:10:48;6.00;99.90
19732;DHT22;10017;54.350;18.532;2022-11-15T04:13:19;6.00;99.90
19732;DHT22;10017;54.350;18.532;2022-11-15T04:15:54;6.00;99.90
19732;DHT22;10017;54.350;18.532;2022-11-15T04:18:25;6.10;99.90
19732;DHT22;10017;54.350;18.532;2022-11-15T04:20:59;6.00;99.90
19732;DHT22;10017;54.350;18.532;2022-11-15T04:23:50;6.10;99.90
19732;DHT22;10017;54.350;18.532;2022-11-15T04:26:40;6.00;99.90
19732;DHT22;10017;54.350;18.532;2022-11-15T04:29:12;6.00;99.90
19732;DHT22;10017;54.350;18.532;2022-11-15T04:32:03;6.00;99.90
19732;DHT22;10017;54.350;18.532;2022-11-15T04:34:36;6.00;99.90
19732;DHT22;10017;54.350;18.532;2022-11-15T04:37:09;6.00;99.90
19732;DHT22;10017;54.350;18.532;2022-11-15T04:39:46;5.90;99.90
19732;DHT22;10017;54.350;18.532;2022-11-15T04:42:18;6.00;99.90
19732;DHT22;10017;54.350;18.532;2022-11-15T04:44:50;6.00;99.90
19732;DHT22;10017;54.350;18.532;2022-11-15T04:47:21;6.00;99.90
19732;DHT22;10017;54.350;18.532;2022-11-15T04:49:53;5.90;99.90
19732;DHT22;10017;54.350;18.532;2022-11-15T04:52:25;5.90;99.90
19732;DHT22;10017;54.350;18.532;2022-11-15T04:54:57;5.80;99.90
19732;DHT22;10017;54.350;18.532;2022-11-15T04:57:38;5.90;99.90
19732;DHT22;10017;54.350;18.532;2022-11-15T05:00:14;5.90;99.90
19732;DHT22;10017;54.350;18.532;2022-11-15T05:02:46;5.80;99.90
19732;DHT22;10017;54.350;18.532;2022-11-15T05:05:37;5.80;99.90
19732;DHT22;10017;54.350;18.532;2022-11-15T05:08:09;5.80;99.90
19732;DHT22;10017;54.350;18.532;2022-11-15T05:10:41;5.80;99.90
19732;DHT22;10017;54.350;18.532;2022-11-15T05:13:12;5.80;99.90
19732;DHT22;10017;54.350;18.532;2022-11-15T05:15:44;5.80;99.90
19732;DHT22;10017;54.350;18.532;2022-11-15T05:18:16;5.80;99.90
19732;DHT22;10017;54.350;18.532;2022-11-15T05:20:54;5.80;99.90
19732;DHT22;10017;54.350;18.532;2022-11-15T05:23:28;5.80;99.90
19732;DHT22;10017;54.350;18.532;2022-11-15T05:26:00;5.80;99.90
19732;DHT22;10017;54.350;18.532;2022-11-15T05:28:39;5.80;99.90
19732;DHT22;10017;54.350;18.532;2022-11-15T05:31:12;5.80;99.90
19732;DHT22;10017;54.350;18.532;2022-11-15T05:33:44;5.80;99.90
19732;DHT22;10017;54.350;18.532;2022-11-15T05:36:21;5.70;99.90
19732;DHT22;10017;54.350;18.532;2022-11-15T05:38:54;5.80;99.90
19732;DHT22;10017;54.350;18.532;2022-11-15T05:41:37;5.80;99.90
19732;DHT22;10017;54.350;18.532;2022-11-15T05:44:13;5.80;99.90
19732;DHT22;10017;54.350;18.532;2022-11-15T05:46:45;5.70;99.90
19732;DHT22;10017;54.350;18.532;2022-11-15T05:49:19;5.80;99.90
19732;DHT22;10017;54.350;18.532;2022-11-15T05:51:51;5.80;99.90
19732;DHT22;10017;54.350;18.532;2022-11-15T05:54:24;5.80;99.90
19732;DHT22;10017;54.350;18.532;2022-11-15T05:56:56;5.80;99.90
19732;DHT22;10017;54.350;18.532;2022-11-15T05:59:29;5.80;99.90
19732;DHT22;10017;54.350;18.532;2022-11-15T06:02:01;5.80;99.90
19732;DHT22;10017;54.350;18.532;2022-11-15T06:04:33;5.80;99.90
19732;DHT22;10017;54.350;18.532;2022-11-15T06:07:07;5.80;99.90
19732;DHT22;10017;54.350;18.532;2022-11-15T06:09:41;5.80;99.90
19732;DHT22;10017;54.350;18.532;2022-11-15T06:12:13;5.80;99.90
19732;DHT22;10017;54.350;18.532;2022-11-15T06:14:45;5.90;99.90
19732;DHT22;10017;54.350;18.532;2022-11-15T06:17:17;5.90;99.90
19732;DHT22;10017;54.350;18.532;2022-11-15T06:19:49;5.90;99.90
19732;DHT22;10017;54.350;18.532;2022-11-15T06:22:20;5.80;99.90
19732;DHT22;10017;54.350;18.532;2022-11-15T06:24:52;5.80;99.90
19732;DHT22;10017;54.350;18.532;2022-11-15T06:27:24;5.90;99.90
19732;DHT22;10017;54.350;18.532;2022-11-15T06:29:56;5.90;99.90
19732;DHT22;10017;54.350;18.532;2022-11-15T06:32:28;5.80;99.90
19732;DHT22;10017;54.350;18.532;2022-11-15T06:35:01;5.80;99.90
19732;DHT22;10017;54.350;18.532;2022-11-15T06:37:33;5.70;99.90
19732;DHT22;10017;54.350;18.532;2022-11-15T06:40:05;5.80;99.90
19732;DHT22;10017;54.350;18.532;2022-11-15T06:42:37;5.80;99.90
19732;DHT22;10017;54.350;18.532;2022-11-15T06:45:09;5.70;99.90
19732;DHT22;10017;54.350;18.532;2022-11-15T06:47:46;5.70;99.90
19732;DHT22;10017;54.350;18.532;2022-11-15T06:50:23;5.80;99.90
19732;DHT22;10017;54.350;18.532;2022-11-15T06:52:55;5.80;99.90
19732;DHT22;10017;54.350;18.532;2022-11-15T06:55:33;5.80;99.90
19732;DHT22;10017;54.350;18.532;2022-11-15T06:58:05;5.80;99.90
19732;DHT22;10017;54.350;18.532;2022-11-15T07:00:37;5.80;99.90
19732;DHT22;10017;54.350;18.532;2022-11-15T07:03:09;5.80;99.90
19732;DHT22;10017;54.350;18.532;2022-11-15T07:05:41;5.90;99.90
19732;DHT22;10017;54.350;18.532;2022-11-15T07:08:13;5.90;99.90
19732;DHT22;10017;54.350;18.532;2022-11-15T07:10:44;5.90;99.90
19732;DHT22;10017;54.350;18.532;2022-11-15T07:13:16;5.90;99.90
19732;DHT22;10017;54.350;18.532;2022-11-15T07:15:48;5.90;99.90
19732;DHT22;10017;54.350;18.532;2022-11-15T07:18:22;5.80;99.90
19732;DHT22;10017;54.350;18.532;2022-11-15T07:20:54;5.80;99.90
19732;DHT22;10017;54.350;18.532;2022-11-15T07:23:28;5.80;99.90
19732;DHT22;10017;54.350;18.532;2022-11-15T07:26:00;5.70;99.90
19732;DHT22;10017;54.350;18.532;2022-11-15T07:28:32;5.80;99.90
19732;DHT22;10017;54.350;18.532;2022-11-15T07:31:05;5.80;99.90
19732;DHT22;10017;54.350;18.532;2022-11-15T07:33:37;5.80;99.90
19732;DHT22;10017;54.350;18.532;2022-11-15T07:36:09;5.90;99.90
19732;DHT22;10017;54.350;18.532;2022-11-15T07:38:41;5.90;99.90
19732;DHT22;10017;54.350;18.532;2022-11-15T07:41:13;5.90;99.90
19732;DHT22;10017;54.350;18.532;2022-11-15T07:43:45;5.90;99.90
19732;DHT22;10017;54.350;18.532;2022-11-15T07:46:17;6.00;99.90
19732;DHT22;10017;54.350;18.532;2022-11-15T07:48:49;6.00;99.90
19732;DHT22;10017;54.350;18.532;2022-11-15T07:51:20;5.90;99.90
19732;DHT22;10017;54.350;18.532;2022-11-15T07:53:52;6.00;99.90
19732;DHT22;10017;54.350;18.532;2022-11-15T07:56:24;6.00;99.90
19732;DHT22;10017;54.350;18.532;2022-11-15T07:58:56;6.00;99.90
19732;DHT22;10017;54.350;18.532;2022-11-15T08:01:28;6.00;99.90
19732;DHT22;10017;54.350;18.532;2022-11-15T08:04:00;6.00;99.90
19732;DHT22;10017;54.350;18.532;2022-11-15T08:06:32;6.10;99.90
19732;DHT22;10017;54.350;18.532;2022-11-15T08:09:04;6.20;99.90
19732;DHT22;10017;54.350;18.532;2022-11-15T08:11:36;6.20;99.90
19732;DHT22;10017;54.350;18.532;2022-11-15T08:14:08;6.10;99.90
19732;DHT22;10017;54.350;18.532;2022-11-15T08:16:40;6.10;99.90
19732;DHT22;10017;54.350;18.532;2022-11-15T08:19:11;6.10;99.90
19732;DHT22;10017;54.350;18.532;2022-11-15T08:21:43;6.10;99.90
19732;DHT22;10017;54.350;18.532;2022-11-15T08:24:15;6.10;99.90
19732;DHT22;10017;54.350;18.532;2022-11-15T08:26:47;6.10;99.90
19732;DHT22;10017;54.350;18.532;2022-11-15T08:29:18;6.10;99.90
19732;DHT22;10017;54.350;18.532;2022-11-15T08:31:50;6.10;99.90
19732;DHT22;10017;54.350;18.532;2022-11-15T08:34:25;6.20;99.90
19732;DHT22;10017;54.350;18.532;2022-11-15T08:36:56;6.20;99.90
19732;DHT22;10017;54.350;18.532;2022-11-15T08:39:28;6.10;99.90
19732;DHT22;10017;54.350;18.532;2022-11-15T08:42:00;6.20;99.90
19732;DHT22;10017;54.350;18.532;2022-11-15T08:44:32;6.20;99.90
19732;DHT22;10017;54.350;18.532;2022-11-15T08:47:08;6.20;99.90
19732;DHT22;10017;54.350;18.532;2022-11-15T08:49:42;6.20;99.90
19732;DHT22;10017;54.350;18.532;2022-11-15T08:52:14;6.10;99.90
19732;DHT22;10017;54.350;18.532;2022-11-15T08:54:45;6.20;99.90
19732;DHT22;10017;54.350;18.532;2022-11-15T08:57:17;6.20;99.90
19732;DHT22;10017;54.350;18.532;2022-11-15T08:59:49;6.10;99.90
19732;DHT22;10017;54.350;18.532;2022-11-15T09:02:21;6.10;99.90
19732;DHT22;10017;54.350;18.532;2022-11-15T09:04:53;6.10;99.90
19732;DHT22;10017;54.350;18.532;2022-11-15T09:07:25;6.10;99.90
19732;DHT22;10017;54.350;18.532;2022-11-15T09:09:57;6.10;99.90
19732;DHT22;10017;54.350;18.532;2022-11-15T09:12:28;6.10;99.90
19732;DHT22;10017;54.350;18.532;2022-11-15T09:15:00;6.20;99.90
19732;DHT22;10017;54.350;18.532;2022-11-15T09:17:32;6.10;99.90
19732;DHT22;10017;54.350;18.532;2022-11-15T09:20:04;6.20;99.90
19732;DHT22;10017;54.350;18.532;2022-11-15T09:22:36;6.20;99.90
19732;DHT22;10017;54.350;18.532;2022-11-15T09:25:10;6.20;99.90
19732;DHT22;10017;54.350;18.532;2022-11-15T09:27:41;6.20;99.90
19732;DHT22;10017;54.350;18.532;2022-11-15T09:30:13;6.20;99.90
19732;DHT22;10017;54.350;18.532;2022-11-15T09:32:45;6.10;99.90
19732;DHT22;10017;54.350;18.532;2022-11-15T09:35:17;6.10;99.90
19732;DHT22;10017;54.350;18.532;2022-11-15T09:37:48;6.10;99.90
19732;DHT22;10017;54.350;18.532;2022-11-15T09:40:27;6.10;99.90
19732;DHT22;10017;54.350;18.532;2022-11-15T09:46:36;6.10;99.90
19732;DHT22;10017;54.350;18.532;2022-11-15T09:51:21;6.20;99.90
19732;DHT22;10017;54.350;18.532;2022-11-15T09:56:49;6.20;99.90
19732;DHT22;10017;54.350;18.532;2022-11-15T10:01:59;6.10;99.90
19732;DHT22;10017;54.350;18.532;2022-11-15T10:04:36;6.10;99.90
19732;DHT22;10017;54.350;18.532;2022-11-15T10:09:53;6.20;99.90
19732;DHT22;10017;54.350;18.532;2022-11-15T10:12:26;6.20;99.90
19732;DHT22;10017;54.350;18.532;2022-11-15T10:15:00;6.30;99.90
19732;DHT22;10017;54.350;18.532;2022-11-15T10:17:37;6.30;99.90
19732;DHT22;10017;54.350;18.532;2022-11-15T10:20:23;6.30;99.90
19732;DHT22;10017;54.350;18.532;2022-11-15T10:22:58;6.30;99.90
19732;DHT22;10017;54.350;18.532;2022-11-15T10:25:31;6.20;99.90
19732;DHT22;10017;54.350;18.532;2022-11-15T10:30:37;6.20;99.90
19732;DHT22;10017;54.350;18.532;2022-11-15T10:36:14;6.10;99.90
19732;DHT22;10017;54.350;18.532;2022-11-15T10:44:02;6.10;99.90
19732;DHT22;10017;54.350;18.532;2022-11-15T10:46:34;6.10;99.90
19732;DHT22;10017;54.350;18.532;2022-11-15T10:49:28;6.10;99.90
19732;DHT22;10017;54.350;18.532;2022-11-15T10:52:21;6.10;99.90
19732;DHT22;10017;54.350;18.532;2022-11-15T10:54:55;6.20;99.90
19732;DHT22;10017;54.350;18.532;2022-11-15T10:57:29;6.20;99.90
19732;DHT22;10017;54.350;18.532;2022-11-15T11:02:55;6.20;99.90
19732;DHT22;10017;54.350;18.532;2022-11-15T11:05:29;6.20;99.90
19732;DHT22;10017;54.350;18.532;2022-11-15T11:10:55;6.30;99.90
19732;DHT22;10017;54.350;18.532;2022-11-15T11:13:37;6.30;99.90
19732;DHT22;10017;54.350;18.532;2022-11-15T11:45:26;6.60;99.90
19732;DHT22;10017;54.350;18.532;2022-11-15T11:48:01;6.60;99.90
19732;DHT22;10017;54.350;18.532;2022-11-15T11:50:36;6.60;99.90
19732;DHT22;10017;54.350;18.532;2022-11-15T11:53:11;6.60;99.90
19732;DHT22;10017;54.350;18.532;2022-11-15T11:55:47;6.60;99.90
19732;DHT22;10017;54.350;18.532;2022-11-15T12:00:55;6.60;99.90
19732;DHT22;10017;54.350;18.532;2022-11-15T12:03:35;6.60;99.90
19732;DHT22;10017;54.350;18.532;2022-11-15T12:08:56;6.60;99.90
19732;DHT22;10017;54.350;18.532;2022-11-15T12:11:33;6.60;99.90
19732;DHT22;10017;54.350;18.532;2022-11-15T12:14:12;6.50;99.90
19732;DHT22;10017;54.350;18.532;2022-11-15T12:16:47;6.50;99.90
19732;DHT22;10017;54.350;18.532;2022-11-15T12:19:19;6.60;99.90
19732;DHT22;10017;54.350;18.532;2022-11-15T12:25:00;6.50;99.90
19732;DHT22;10017;54.350;18.532;2022-11-15T12:27:39;6.50;99.90
19732;DHT22;10017;54.350;18.532;2022-11-15T12:30:13;6.50;99.90
19732;DHT22;10017;54.350;18.532;2022-11-15T12:32:55;6.50;99.90
19732;DHT22;10017;54.350;18.532;2022-11-15T12:35:38;6.40;99.90
19732;DHT22;10017;54.350;18.532;2022-11-15T12:38:11;6.40;99.90
19732;DHT22;10017;54.350;18.532;2022-11-15T12:46:10;6.40;99.90
19732;DHT22;10017;54.350;18.532;2022-11-15T12:48:47;6.40;99.90
19732;DHT22;10017;54.350;18.532;2022-11-15T12:51:20;6.40;99.90
19732;DHT22;10017;54.350;18.532;2022-11-15T12:53:52;6.50;99.90
19732;DHT22;10017;54.350;18.532;2022-11-15T12:56:26;6.50;99.90
19732;DHT22;10017;54.350;18.532;2022-11-15T12:58:59;6.40;99.90
19732;DHT22;10017;54.350;18.532;2022-11-15T13:11:59;6.40;99.90
19732;DHT22;10017;54.350;18.532;2022-11-15T13:19:58;6.40;99.90
19732;DHT22;10017;54.350;18.532;2022-11-15T13:28:03;6.30;99.90
19732;DHT22;10017;54.350;18.532;2022-11-15T13:35:54;6.30;99.90
19732;DHT22;10017;54.350;18.532;2022-11-15T13:38:28;6.30;99.90
19732;DHT22;10017;54.350;18.532;2022-11-15T13:41:10;6.30;99.90
19732;DHT22;10017;54.350;18.532;2022-11-15T13:43:45;6.20;99.90
19732;DHT22;10017;54.350;18.532;2022-11-15T13:48:53;6.10;99.90
19732;DHT22;10017;54.350;18.532;2022-11-15T13:56:32;6.10;99.90
19732;DHT22;10017;54.350;18.532;2022-11-15T13:59:09;6.10;99.90
19732;DHT22;10017;54.350;18.532;2022-11-15T14:01:41;6.10;99.90
19732;DHT22;10017;54.350;18.532;2022-11-15T14:04:14;6.00;99.90
19732;DHT22;10017;54.350;18.532;2022-11-15T14:06:53;6.00;99.90
19732;DHT22;10017;54.350;18.532;2022-11-15T14:09:37;6.00;99.90
19732;DHT22;10017;54.350;18.532;2022-11-15T14:14:59;6.00;99.90
19732;DHT22;10017;54.350;18.532;2022-11-15T14:20:18;5.90;99.90
19732;DHT22;10017;54.350;18.532;2022-11-15T14:22:54;5.90;99.90
19732;DHT22;10017;54.350;18.532;2022-11-15T14:25:31;5.90;99.90
19732;DHT22;10017;54.350;18.532;2022-11-15T14:28:11;5.90;99.90
19732;DHT22;10017;54.350;18.532;2022-11-15T14:30:46;5.80;99.90
19732;DHT22;10017;54.350;18.532;2022-11-15T14:36:15;5.80;99.90
19732;DHT22;10017;54.350;18.532;2022-11-15T14:38:49;5.70;99.90
19732;DHT22;10017;54.350;18.532;2022-11-15T14:41:22;5.70;99.90
19732;DHT22;10017;54.350;18.532;2022-11-15T14:43:54;5.70;99.90
19732;DHT22;10017;54.350;18.532;2022-11-15T14:46:26;5.70;99.90
19732;DHT22;10017;54.350;18.532;2022-11-15T14:48:57;5.70;99.90
19732;DHT22;10017;54.350;18.532;2022-11-15T14:51:29;5.60;99.90
19732;DHT22;10017;54.350;18.532;2022-11-15T14:54:01;5.70;99.90
19732;DHT22;10017;54.350;18.532;2022-11-15T14:56:33;5.60;99.90
19732;DHT22;10017;54.350;18.532;2022-11-15T14:59:05;5.60;99.90
19732;DHT22;10017;54.350;18.532;2022-11-15T15:01:37;5.60;99.90
19732;DHT22;10017;54.350;18.532;2022-11-15T15:04:10;5.60;99.90
19732;DHT22;10017;54.350;18.532;2022-11-15T15:06:41;5.60;99.90
19732;DHT22;10017;54.350;18.532;2022-11-15T15:09:13;5.60;99.90
19732;DHT22;10017;54.350;18.532;2022-11-15T15:11:45;5.50;99.90
19732;DHT22;10017;54.350;18.532;2022-11-15T15:14:17;5.60;99.90
19732;DHT22;10017;54.350;18.532;2022-11-15T15:16:49;5.60;99.90
19732;DHT22;10017;54.350;18.532;2022-11-15T15:19:21;5.50;99.90
19732;DHT22;10017;54.350;18.532;2022-11-15T15:21:56;5.50;99.90
19732;DHT22;10017;54.350;18.532;2022-11-15T15:24:28;5.50;99.90
19732;DHT22;10017;54.350;18.532;2022-11-15T15:27:00;5.50;99.90
19732;DHT22;10017;54.350;18.532;2022-11-15T15:29:34;5.50;99.90
19732;DHT22;10017;54.350;18.532;2022-11-15T15:32:06;5.50;99.90
19732;DHT22;10017;54.350;18.532;2022-11-15T15:34:40;5.50;99.90
19732;DHT22;10017;54.350;18.532;2022-11-15T15:37:22;5.50;99.90
19732;DHT22;10017;54.350;18.532;2022-11-15T15:39:55;5.50;99.90
19732;DHT22;10017;54.350;18.532;2022-11-15T15:42:27;5.50;99.90
19732;DHT22;10017;54.350;18.532;2022-11-15T15:44:59;5.50;99.90
19732;DHT22;10017;54.350;18.532;2022-11-15T15:47:31;5.50;99.90
19732;DHT22;10017;54.350;18.532;2022-11-15T15:50:03;5.60;99.90
19732;DHT22;10017;54.350;18.532;2022-11-15T15:52:35;5.60;99.90
19732;DHT22;10017;54.350;18.532;2022-11-15T15:55:07;5.60;99.90
19732;DHT22;10017;54.350;18.532;2022-11-15T15:57:39;5.60;99.90
19732;DHT22;10017;54.350;18.532;2022-11-15T16:00:11;5.60;99.90
19732;DHT22;10017;54.350;18.532;2022-11-15T16:02:43;5.60;99.90
19732;DHT22;10017;54.350;18.532;2022-11-15T16:05:15;5.70;99.90
19732;DHT22;10017;54.350;18.532;2022-11-15T16:07:49;5.70;99.90
19732;DHT22;10017;54.350;18.532;2022-11-15T16:10:25;5.60;99.90
19732;DHT22;10017;54.350;18.532;2022-11-15T16:12:57;5.70;99.90
19732;DHT22;10017;54.350;18.532;2022-11-15T16:15:30;5.70;99.90
19732;DHT22;10017;54.350;18.532;2022-11-15T16:18:02;5.70;99.90
19732;DHT22;10017;54.350;18.532;2022-11-15T16:23:14;5.70;99.90
19732;DHT22;10017;54.350;18.532;2022-11-15T16:25:48;5.80;99.90
19732;DHT22;10017;54.350;18.532;2022-11-15T16:28:21;5.70;99.90
19732;DHT22;10017;54.350;18.532;2022-11-15T16:33:31;5.80;99.90
19732;DHT22;10017;54.350;18.532;2022-11-15T16:36:05;5.80;99.90
19732;DHT22;10017;54.350;18.532;2022-11-15T16:38:37;5.80;99.90
19732;DHT22;10017;54.350;18.532;2022-11-15T16:41:10;5.80;99.90
19732;DHT22;10017;54.350;18.532;2022-11-15T16:43:42;5.80;99.90
19732;DHT22;10017;54.350;18.532;2022-11-15T16:46:24;5.80;99.90
19732;DHT22;10017;54.350;18.532;2022-11-15T16:48:56;5.80;99.90
19732;DHT22;10017;54.350;18.532;2022-11-15T16:51:28;5.80;99.90
19732;DHT22;10017;54.350;18.532;2022-11-15T16:54:00;5.80;99.90
19732;DHT22;10017;54.350;18.532;2022-11-15T16:56:31;5.80;99.90
19732;DHT22;10017;54.350;18.532;2022-11-15T16:59:04;5.80;99.90
19732;DHT22;10017;54.350;18.532;2022-11-15T17:01:38;5.80;99.90
19732;DHT22;10017;54.350;18.532;2022-11-15T17:04:17;5.80;99.90
19732;DHT22;10017;54.350;18.532;2022-11-15T17:06:49;5.80;99.90
19732;DHT22;10017;54.350;18.532;2022-11-15T17:09:21;5.80;99.90
19732;DHT22;10017;54.350;18.532;2022-11-15T17:11:58;5.80;99.90
19732;DHT22;10017;54.350;18.532;2022-11-15T17:14:29;5.80;99.90
19732;DHT22;10017;54.350;18.532;2022-11-15T17:17:01;5.80;99.90
19732;DHT22;10017;54.350;18.532;2022-11-15T17:19:33;5.80;99.90
19732;DHT22;10017;54.350;18.532;2022-11-15T17:22:05;5.80;99.90
19732;DHT22;10017;54.350;18.532;2022-11-15T17:24:37;5.80;99.90
19732;DHT22;10017;54.350;18.532;2022-11-15T17:27:09;5.80;99.90
19732;DHT22;10017;54.350;18.532;2022-11-15T17:29:41;5.80;99.90
19732;DHT22;10017;54.350;18.532;2022-11-15T17:32:15;5.80;99.90
19732;DHT22;10017;54.350;18.532;2022-11-15T17:34:47;5.80;99.90
19732;DHT22;10017;54.350;18.532;2022-11-15T17:37:19;5.80;99.90
19732;DHT22;10017;54.350;18.532;2022-11-15T17:39:51;5.80;99.90
19732;DHT22;10017;54.350;18.532;2022-11-15T17:42:23;5.80;99.90
19732;DHT22;10017;54.350;18.532;2022-11-15T17:44:54;5.80;99.90
19732;DHT22;10017;54.350;18.532;2022-11-15T17:47:29;5.70;99.90
19732;DHT22;10017;54.350;18.532;2022-11-15T17:50:00;5.80;99.90
19732;DHT22;10017;54.350;18.532;2022-11-15T17:52:32;5.70;99.90
19732;DHT22;10017;54.350;18.532;2022-11-15T17:55:04;5.70;99.90
19732;DHT22;10017;54.350;18.532;2022-11-15T17:57:36;5.70;99.90
19732;DHT22;10017;54.350;18.532;2022-11-15T18:00:08;5.80;99.90
19732;DHT22;10017;54.350;18.532;2022-11-15T18:02:40;5.80;99.90
19732;DHT22;10017;54.350;18.532;2022-11-15T18:05:12;5.70;99.90
19732;DHT22;10017;54.350;18.532;2022-11-15T18:07:44;5.70;99.90
19732;DHT22;10017;54.350;18.532;2022-11-15T18:10:16;5.70;99.90
19732;DHT22;10017;54.350;18.532;2022-11-15T18:12:50;5.70;99.90
19732;DHT22;10017;54.350;18.532;2022-11-15T18:15:22;5.80;99.90
19732;DHT22;10017;54.350;18.532;2022-11-15T18:17:54;5.80;99.90
19732;DHT22;10017;54.350;18.532;2022-11-15T18:20:31;5.80;99.90
19732;DHT22;10017;54.350;18.532;2022-11-15T18:23:05;5.80;99.90
19732;DHT22;10017;54.350;18.532;2022-11-15T18:25:39;5.80;99.90
19732;DHT22;10017;54.350;18.532;2022-11-15T18:28:11;5.80;99.90
19732;DHT22;10017;54.350;18.532;2022-11-15T18:30:42;5.90;99.90
19732;DHT22;10017;54.350;18.532;2022-11-15T18:33:14;5.90;99.90
19732;DHT22;10017;54.350;18.532;2022-11-15T18:35:46;5.80;99.90
19732;DHT22;10017;54.350;18.532;2022-11-15T18:38:19;5.90;99.90
19732;DHT22;10017;54.350;18.532;2022-11-15T18:40:53;5.80;99.90
19732;DHT22;10017;54.350;18.532;2022-11-15T18:43:24;5.90;99.90
19732;DHT22;10017;54.350;18.532;2022-11-15T18:46:03;5.80;99.90
19732;DHT22;10017;54.350;18.532;2022-11-15T18:48:35;5.80;99.90